Time;durP1;ratioP1;P1;durP2;ratioP2;P2;SDS_P1;SDS_P2;PMS_P1;PMS_P2;Temp;Humidity;BMP_temperature;BMP_pressure;BME280_temperature;BME280_humidity;BME280_pressure;Samples;Min_cycle;Max_cycle;Signal;HPM_P1;HPM_P2
2022/11/23 00:01:42;;;;;;;11.63;1.70;;;8.30;99.90;;;;;;5035409;28;20025;-54
2022/11/23 00:04:11;;;;;;;6.90;1.50;;;8.30;99.90;;;;;;5035116;28;20398;-58
2022/11/23 00:06:37;;;;;;;5.75;1.40;;;8.30;99.90;;;;;;5034894;28;20124;-58
2022/11/23 00:09:03;;;;;;;7.07;1.40;;;8.30;99.90;;;;;;5034948;28;20120;-57
2022/11/23 00:11:29;;;;;;;5.23;1.33;;;8.40;99.90;;;;;;5035669;28;20030;-58
2022/11/23 00:13:55;;;;;;;6.67;1.57;;;8.40;99.90;;;;;;5035558;28;20494;-57
2022/11/23 00:16:24;;;;;;;5.57;1.77;;;8.40;99.90;;;;;;5035225;28;20041;-56
2022/11/23 00:18:55;;;;;;;3.22;0.98;;;8.40;99.90;;;;;;5034409;28;20025;-57
2022/11/23 00:21:21;;;;;;;6.83;1.30;;;8.50;99.90;;;;;;5034748;28;20037;-56
2022/11/23 00:23:48;;;;;;;6.83;1.30;;;8.50;99.90;;;;;;5048106;28;20549;-56
2022/11/23 00:26:15;;;;;;;8.23;1.63;;;8.50;99.90;;;;;;5055279;28;20029;-56
2022/11/23 00:28:42;;;;;;;5.23;1.30;;;8.50;99.90;;;;;;5055175;28;20037;-57
2022/11/23 00:31:13;;;;;;;5.70;1.47;;;8.50;99.90;;;;;;5051529;28;20052;-56
2022/11/23 00:33:39;;;;;;;8.57;2.03;;;8.50;99.90;;;;;;5051808;28;20025;-56
2022/11/23 00:36:13;;;;;;;5.30;1.50;;;8.50;99.90;;;;;;5050024;28;20044;-57
2022/11/23 00:38:39;;;;;;;6.60;1.40;;;8.50;99.90;;;;;;5036104;28;20485;-55
2022/11/23 00:41:08;;;;;;;6.40;1.33;;;8.50;99.90;;;;;;5031951;28;20439;-54
2022/11/23 00:43:35;;;;;;;5.53;1.33;;;8.50;99.90;;;;;;5032146;28;20102;-56
2022/11/23 00:46:04;;;;;;;6.77;1.83;;;8.50;99.90;;;;;;5031704;28;20516;-55
2022/11/23 00:48:30;;;;;;;6.80;1.30;;;8.50;99.90;;;;;;5030999;28;20033;-56
2022/11/23 00:51:02;;;;;;;6.73;1.60;;;8.60;99.90;;;;;;5029641;28;20036;-58
2022/11/23 00:53:28;;;;;;;5.00;1.27;;;8.60;99.90;;;;;;5031966;28;20124;-57
2022/11/23 00:55:55;;;;;;;4.47;1.10;;;8.60;99.90;;;;;;5031996;28;20109;-56
2022/11/23 00:58:21;;;;;;;6.10;1.30;;;8.60;99.90;;;;;;5031631;28;20592;-54
2022/11/23 01:00:47;;;;;;;6.47;1.23;;;8.60;99.90;;;;;;5031471;28;20029;-53
2022/11/23 01:03:14;;;;;;;6.80;1.50;;;8.60;99.90;;;;;;5031031;28;20489;-54
2022/11/23 01:05:40;;;;;;;6.73;1.60;;;8.50;99.90;;;;;;5029735;28;20047;-54
2022/11/23 01:08:06;;;;;;;5.70;1.47;;;8.40;99.90;;;;;;5031198;28;20022;-53
2022/11/23 01:10:32;;;;;;;6.60;1.57;;;8.40;99.90;;;;;;5029871;28;20057;-53
2022/11/23 01:12:58;;;;;;;6.37;1.50;;;8.40;99.90;;;;;;5031454;28;20057;-53
2022/11/23 01:15:24;;;;;;;6.83;1.37;;;8.40;99.90;;;;;;5031478;28;20037;-55
2022/11/23 01:17:51;;;;;;;8.43;1.70;;;8.40;99.90;;;;;;5029267;28;20048;-56
2022/11/23 01:20:17;;;;;;;7.80;1.80;;;8.40;99.90;;;;;;5030254;28;20112;-52
2022/11/23 01:22:43;;;;;;;7.10;1.77;;;8.40;99.90;;;;;;5031348;28;20032;-57
2022/11/23 01:25:08;;;;;;;5.80;1.57;;;8.40;99.90;;;;;;5031182;28;20029;-55
2022/11/23 01:27:37;;;;;;;9.10;1.57;;;8.50;99.90;;;;;;5029691;28;20037;-53
2022/11/23 01:30:03;;;;;;;9.03;2.07;;;8.50;99.90;;;;;;5030648;28;20044;-54
2022/11/23 01:32:31;;;;;;;8.48;1.60;;;8.60;99.90;;;;;;5029509;28;20055;-56
2022/11/23 01:34:57;;;;;;;7.60;1.60;;;8.60;99.90;;;;;;5030118;28;20029;-54
2022/11/23 01:37:22;;;;;;;8.30;1.50;;;8.60;99.90;;;;;;5030808;28;20025;-54
2022/11/23 01:39:49;;;;;;;8.17;1.53;;;8.60;99.90;;;;;;5028843;28;20478;-56
2022/11/23 01:42:15;;;;;;;11.27;1.50;;;8.60;99.90;;;;;;5028453;28;20167;-55
2022/11/23 01:44:41;;;;;;;6.30;1.30;;;8.70;99.90;;;;;;5030444;28;20048;-56
2022/11/23 01:47:08;;;;;;;8.50;1.63;;;8.70;99.90;;;;;;5030694;28;20033;-56
2022/11/23 01:49:42;;;;;;;6.23;1.40;;;8.70;99.90;;;;;;5029769;28;20033;-57
2022/11/23 01:52:21;;;;;;;7.60;1.30;;;8.70;99.90;;;;;;5030666;28;20418;-56
2022/11/23 01:54:55;;;;;;;7.15;1.25;;;8.80;99.90;;;;;;5029224;28;20029;-55
2022/11/23 01:57:31;;;;;;;6.57;1.20;;;8.80;99.90;;;;;;5030253;28;20543;-52
2022/11/23 01:59:59;;;;;;;10.17;1.60;;;8.80;99.90;;;;;;5028820;28;20095;-56
2022/11/23 02:02:28;;;;;;;9.27;1.67;;;8.90;99.90;;;;;;5030604;28;20022;-56
2022/11/23 02:04:57;;;;;;;5.90;1.33;;;8.90;99.90;;;;;;5029388;28;20806;-56
2022/11/23 02:07:24;;;;;;;9.15;1.73;;;8.90;99.90;;;;;;5029284;28;20048;-56
2022/11/23 02:09:51;;;;;;;6.80;1.17;;;8.90;99.90;;;;;;5030235;28;20040;-55
2022/11/23 02:12:17;;;;;;;6.77;1.30;;;8.90;99.90;;;;;;5029643;28;20104;-54
2022/11/23 02:14:44;;;;;;;7.30;1.50;;;9.00;99.90;;;;;;5030879;28;20030;-57
2022/11/23 02:17:10;;;;;;;8.53;1.97;;;8.90;99.90;;;;;;5030259;28;20134;-56
2022/11/23 02:19:46;;;;;;;9.10;1.50;;;8.90;99.90;;;;;;5027478;28;20083;-55
2022/11/23 02:22:23;;;;;;;8.10;1.43;;;9.00;99.90;;;;;;5028889;28;20120;-56
2022/11/23 02:24:53;;;;;;;8.10;1.63;;;8.90;99.90;;;;;;5030210;28;20040;-57
2022/11/23 02:27:20;;;;;;;5.87;1.40;;;9.00;99.90;;;;;;5030120;28;20026;-54
2022/11/23 02:29:47;;;;;;;8.40;1.30;;;8.90;99.90;;;;;;5029398;28;20036;-57
2022/11/23 02:32:21;;;;;;;8.07;1.53;;;8.90;99.90;;;;;;5028474;28;20029;-56
2022/11/23 02:34:48;;;;;;;7.37;1.50;;;8.90;99.90;;;;;;5027008;28;20056;-57
2022/11/23 02:37:15;;;;;;;7.43;1.60;;;8.90;99.90;;;;;;5027997;28;20103;-56
2022/11/23 02:39:46;;;;;;;13.50;1.70;;;8.90;99.90;;;;;;5029290;28;20112;-56
2022/11/23 02:42:11;;;;;;;6.07;1.33;;;8.90;99.90;;;;;;5029907;28;20470;-55
2022/11/23 02:44:43;;;;;;;8.83;1.53;;;8.90;99.90;;;;;;5029277;28;20120;-56
2022/11/23 02:47:09;;;;;;;9.90;1.30;;;8.90;99.90;;;;;;5029627;28;20202;-56
2022/11/23 02:49:42;;;;;;;9.60;1.60;;;9.10;99.90;;;;;;5026626;28;20057;-56
2022/11/23 02:52:08;;;;;;;12.40;1.90;;;9.10;99.90;;;;;;5029762;28;20029;-58
2022/11/23 02:54:34;;;;;;;9.40;1.47;;;9.10;99.90;;;;;;5028833;28;20057;-55
2022/11/23 02:57:00;;;;;;;10.83;1.50;;;9.10;99.90;;;;;;5028037;28;20034;-57
2022/11/23 02:59:26;;;;;;;7.07;1.43;;;9.10;99.90;;;;;;5027970;28;20026;-55
2022/11/23 03:01:52;;;;;;;8.97;1.53;;;9.20;99.90;;;;;;5027812;28;20100;-54
2022/11/23 03:04:18;;;;;;;10.83;1.40;;;9.10;99.90;;;;;;5011480;28;20026;-55
2022/11/23 03:06:44;;;;;;;8.07;1.40;;;9.10;99.90;;;;;;5028628;28;20120;-56
2022/11/23 03:09:10;;;;;;;7.07;1.50;;;9.10;99.90;;;;;;5029208;28;20103;-56
2022/11/23 03:11:36;;;;;;;10.13;1.80;;;9.10;99.90;;;;;;5027788;28;20029;-56
2022/11/23 03:14:02;;;;;;;11.30;1.80;;;9.10;99.90;;;;;;5029368;28;20749;-57
2022/11/23 03:16:32;;;;;;;6.15;1.40;;;9.20;99.90;;;;;;5027173;28;20175;-56
2022/11/23 03:18:59;;;;;;;10.17;1.63;;;9.10;99.90;;;;;;5026942;28;20029;-56
2022/11/23 03:21:25;;;;;;;8.73;1.73;;;9.10;99.90;;;;;;5026979;28;20037;-56
2022/11/23 03:23:51;;;;;;;8.17;1.67;;;9.10;99.90;;;;;;5029240;28;20219;-56
2022/11/23 03:26:18;;;;;;;9.07;1.47;;;9.10;99.90;;;;;;5027590;28;20095;-56
2022/11/23 03:28:53;;;;;;;9.70;1.60;;;9.10;99.90;;;;;;5027129;28;20489;-55
2022/11/23 03:31:20;;;;;;;13.37;2.17;;;9.00;99.90;;;;;;5041312;28;20037;-56
2022/11/23 03:33:46;;;;;;;6.80;1.60;;;9.00;99.90;;;;;;5047225;28;20370;-54
2022/11/23 03:36:13;;;;;;;16.03;2.20;;;9.00;99.90;;;;;;5046803;28;20033;-56
2022/11/23 03:38:45;;;;;;;11.13;1.90;;;8.90;99.90;;;;;;5047282;28;20120;-56
2022/11/23 03:41:24;;;;;;;12.40;2.03;;;8.90;99.90;;;;;;5047532;28;20032;-56
2022/11/23 03:43:52;;;;;;;8.00;1.70;;;8.80;99.90;;;;;;5047551;28;20108;-56
2022/11/23 03:46:17;;;;;;;9.80;1.83;;;8.70;99.90;;;;;;5047543;28;20472;-57
2022/11/23 03:48:43;;;;;;;12.10;2.07;;;8.70;99.90;;;;;;5046844;28;20033;-56
2022/11/23 03:51:09;;;;;;;12.60;2.20;;;8.60;99.90;;;;;;5046965;28;20227;-56
2022/11/23 03:53:35;;;;;;;14.70;2.23;;;8.60;99.90;;;;;;5047592;28;20033;-56
2022/11/23 03:56:02;;;;;;;12.23;2.07;;;8.60;99.90;;;;;;5047490;28;20063;-56
2022/11/23 03:58:31;;;;;;;12.80;2.90;;;8.60;99.90;;;;;;5048584;28;20040;-56
2022/11/23 04:00:58;;;;;;;12.03;2.70;;;8.60;99.90;;;;;;5047439;28;20021;-54
2022/11/23 04:03:23;;;;;;;14.83;2.70;;;8.60;99.90;;;;;;5047525;28;20075;-55
2022/11/23 04:06:12;;;;;;;5.83;1.80;;;8.70;99.90;;;;;;5050868;28;20037;-56
2022/11/23 04:09:11;;;;;;;9.53;2.10;;;8.60;99.90;;;;;;5043834;28;20037;-53
2022/11/23 04:12:09;;;;;;;12.47;2.33;;;8.60;99.90;;;;;;5019142;28;20464;-57
2022/11/23 04:14:37;;;;;;;8.67;1.93;;;8.70;99.90;;;;;;5051091;28;20029;-56
2022/11/23 04:17:03;;;;;;;9.03;1.93;;;8.60;99.90;;;;;;5050787;28;20037;-57
2022/11/23 04:19:29;;;;;;;8.20;1.70;;;8.60;99.90;;;;;;5050426;28;20032;-57
2022/11/23 04:21:55;;;;;;;10.30;2.00;;;8.60;99.90;;;;;;5051582;28;20032;-56
2022/11/23 04:24:21;;;;;;;10.67;2.50;;;8.60;99.90;;;;;;5050707;28;20033;-56
2022/11/23 04:26:48;;;;;;;9.87;2.10;;;8.50;99.90;;;;;;5050616;28;20139;-56
2022/11/23 04:29:14;;;;;;;11.87;1.80;;;8.50;99.90;;;;;;5050404;28;20389;-57
2022/11/23 04:31:44;;;;;;;11.03;2.00;;;8.50;99.90;;;;;;5051873;28;20036;-54
2022/11/23 04:34:13;;;;;;;11.70;2.30;;;8.50;99.90;;;;;;5050260;28;20155;-55
2022/11/23 04:36:39;;;;;;;9.60;1.80;;;8.60;99.90;;;;;;5049623;28;20489;-57
2022/11/23 04:39:07;;;;;;;8.37;1.90;;;8.60;99.90;;;;;;5050342;28;20334;-55
2022/11/23 04:41:40;;;;;;;7.47;1.50;;;8.60;99.90;;;;;;5050324;28;20036;-56
2022/11/23 04:44:06;;;;;;;9.10;1.87;;;8.50;99.90;;;;;;5050438;28;20048;-56
2022/11/23 04:46:34;;;;;;;6.47;2.07;;;8.60;99.90;;;;;;5033626;28;20422;-55
2022/11/23 04:49:04;;;;;;;8.17;1.70;;;8.50;99.90;;;;;;5029820;28;20446;-55
2022/11/23 04:51:30;;;;;;;6.90;1.77;;;8.50;99.90;;;;;;5029955;28;20068;-55
2022/11/23 04:53:56;;;;;;;9.83;2.33;;;8.50;99.90;;;;;;5030216;28;20083;-56
2022/11/23 04:56:22;;;;;;;8.23;1.70;;;8.50;99.90;;;;;;5029723;28;20461;-56
2022/11/23 04:58:48;;;;;;;7.70;1.70;;;8.50;99.90;;;;;;5029458;28;20060;-57
2022/11/23 05:01:14;;;;;;;9.33;1.90;;;8.40;99.90;;;;;;5029761;28;20056;-55
2022/11/23 05:03:59;;;;;;;8.03;2.00;;;8.40;99.90;;;;;;5030713;28;20108;-58
2022/11/23 05:06:26;;;;;;;10.07;1.87;;;8.40;99.90;;;;;;5029025;28;20025;-58
2022/11/23 05:08:53;;;;;;;6.67;1.57;;;8.40;99.90;;;;;;5029520;28;20419;-54
2022/11/23 05:11:29;;;;;;;8.73;1.60;;;8.40;99.90;;;;;;5029950;28;20056;-55
2022/11/23 05:13:58;;;;;;;12.73;2.00;;;8.40;99.90;;;;;;5029687;28;20029;-53
2022/11/23 05:16:23;;;;;;;11.43;1.70;;;8.40;99.90;;;;;;5029300;28;20595;-56
2022/11/23 05:18:49;;;;;;;8.30;1.77;;;8.40;99.90;;;;;;5029030;28;20429;-53
2022/11/23 05:21:15;;;;;;;10.00;3.40;;;8.40;99.90;;;;;;5028821;28;20056;-56
2022/11/23 05:23:42;;;;;;;10.13;1.80;;;8.40;99.90;;;;;;5029643;28;20029;-57
2022/11/23 05:26:07;;;;;;;7.33;1.50;;;8.40;99.90;;;;;;5029454;28;20104;-57
2022/11/23 05:28:33;;;;;;;10.47;1.70;;;8.40;99.90;;;;;;5030645;28;20489;-56
2022/11/23 05:30:59;;;;;;;7.73;1.73;;;8.30;99.90;;;;;;5029192;28;20076;-57
2022/11/23 05:33:25;;;;;;;12.57;1.77;;;8.40;99.90;;;;;;5029194;28;20151;-58
2022/11/23 05:35:51;;;;;;;8.10;1.57;;;8.40;99.90;;;;;;5028609;28;20036;-56
2022/11/23 05:38:24;;;;;;;8.00;1.70;;;8.30;99.90;;;;;;5029488;28;20025;-57
2022/11/23 05:40:50;;;;;;;15.10;2.50;;;8.30;99.90;;;;;;5029185;28;20055;-57
2022/11/23 05:43:16;;;;;;;8.97;1.90;;;8.30;99.90;;;;;;5029472;28;20033;-56
2022/11/23 05:45:42;;;;;;;9.80;1.87;;;8.30;99.90;;;;;;5055279;22;20484;-55
2022/11/23 05:48:09;;;;;;;9.23;1.80;;;8.30;99.90;;;;;;5046414;28;20040;-53
2022/11/23 05:50:50;;;;;;;8.07;1.97;;;8.40;99.90;;;;;;5047346;28;20057;-56
2022/11/23 05:53:26;;;;;;;7.40;1.53;;;8.40;99.90;;;;;;5048773;28;20041;-52
2022/11/23 05:56:00;;;;;;;12.23;2.40;;;8.40;99.90;;;;;;5047628;28;20071;-56
2022/11/23 05:58:27;;;;;;;10.00;2.37;;;8.40;99.90;;;;;;5048553;28;20116;-53
2022/11/23 06:00:59;;;;;;;6.27;1.87;;;8.40;99.90;;;;;;5049838;28;20056;-56
2022/11/23 06:03:29;;;;;;;8.30;2.00;;;8.40;99.90;;;;;;5048274;28;20417;-51
2022/11/23 06:05:55;;;;;;;9.03;2.13;;;8.40;99.90;;;;;;5047854;28;20033;-53
2022/11/23 06:08:28;;;;;;;10.33;2.00;;;8.40;99.90;;;;;;5048444;28;20094;-53
2022/11/23 06:10:54;;;;;;;9.13;1.80;;;8.30;99.90;;;;;;5048379;28;20021;-58
2022/11/23 06:13:20;;;;;;;12.10;2.17;;;8.30;99.90;;;;;;5048508;28;20576;-54
2022/11/23 06:15:45;;;;;;;9.83;2.03;;;8.40;99.90;;;;;;5048334;28;20529;-53
2022/11/23 06:18:13;;;;;;;16.67;4.50;;;8.30;99.90;;;;;;5047886;28;20033;-55
2022/11/23 06:20:46;;;;;;;12.27;2.40;;;8.30;99.90;;;;;;5047578;28;20211;-54
2022/11/23 06:23:12;;;;;;;10.10;2.43;;;8.40;99.90;;;;;;5048488;28;20115;-56
2022/11/23 06:25:39;;;;;;;13.60;3.17;;;8.30;99.90;;;;;;5048268;28;20119;-53
2022/11/23 06:28:19;;;;;;;13.93;3.13;;;8.40;99.90;;;;;;5047431;28;20090;-56
2022/11/23 06:30:47;;;;;;;13.57;2.37;;;8.40;99.90;;;;;;5047657;28;20078;-57
2022/11/23 06:33:13;;;;;;;13.33;2.07;;;8.40;99.90;;;;;;5047274;28;20021;-56
2022/11/23 06:35:56;;;;;;;14.23;2.47;;;8.30;99.90;;;;;;5047260;28;20389;-54
2022/11/23 06:38:25;;;;;;;12.53;2.00;;;8.30;99.90;;;;;;5047752;28;20071;-55
2022/11/23 06:41:00;;;;;;;8.63;2.20;;;8.30;99.90;;;;;;5048125;28;20021;-55
2022/11/23 06:43:28;;;;;;;12.80;2.77;;;8.30;99.90;;;;;;5048249;28;20028;-56
2022/11/23 06:45:55;;;;;;;7.00;1.83;;;8.30;99.90;;;;;;5047681;28;20492;-56
2022/11/23 06:48:23;;;;;;;12.83;2.10;;;8.30;99.90;;;;;;5047142;28;20041;-55
2022/11/23 06:50:50;;;;;;;13.07;2.40;;;8.30;99.90;;;;;;5046949;28;20068;-55
2022/11/23 06:53:17;;;;;;;7.00;1.80;;;8.30;99.90;;;;;;5047512;28;20029;-51
2022/11/23 06:55:50;;;;;;;10.67;1.97;;;8.30;99.90;;;;;;5047455;28;20522;-54
2022/11/23 06:58:18;;;;;;;11.43;2.37;;;8.30;99.90;;;;;;5047306;28;20037;-53
2022/11/23 07:00:44;;;;;;;9.60;2.40;;;8.30;99.90;;;;;;5047188;28;20086;-54
2022/11/23 07:03:19;;;;;;;11.20;2.30;;;8.30;99.90;;;;;;5046605;28;20054;-50
2022/11/23 07:05:48;;;;;;;12.80;2.33;;;8.30;99.90;;;;;;5046271;28;20509;-50
2022/11/23 07:08:14;;;;;;;13.07;2.57;;;8.30;99.90;;;;;;5046852;28;20137;-52
2022/11/23 07:10:39;;;;;;;13.13;1.87;;;8.30;99.90;;;;;;5047021;28;20497;-51
2022/11/23 07:13:09;;;;;;;13.00;2.00;;;8.30;99.90;;;;;;5047185;28;20032;-59
2022/11/23 07:15:36;;;;;;;14.40;2.60;;;8.30;99.90;;;;;;5047349;28;20490;-59
2022/11/23 07:18:04;;;;;;;7.63;1.70;;;8.30;99.90;;;;;;5046537;28;20029;-59
2022/11/23 07:20:31;;;;;;;8.13;1.70;;;8.30;99.90;;;;;;5046311;28;20028;-58
2022/11/23 07:23:05;;;;;;;12.13;2.10;;;8.30;99.90;;;;;;5047602;28;20424;-59
2022/11/23 07:25:33;;;;;;;12.73;1.90;;;8.20;99.90;;;;;;5047106;28;20029;-59
2022/11/23 07:28:00;;;;;;;12.67;2.13;;;8.20;99.90;;;;;;5047111;28;20037;-58
2022/11/23 07:30:27;;;;;;;12.97;1.73;;;8.20;99.90;;;;;;5046682;28;20033;-59
2022/11/23 07:32:53;;;;;;;16.10;2.00;;;8.20;99.90;;;;;;5046509;28;20037;-59
2022/11/23 07:35:19;;;;;;;11.40;2.03;;;8.30;99.90;;;;;;5047577;28;20029;-59
2022/11/23 07:37:46;;;;;;;7.03;1.87;;;8.30;99.90;;;;;;5046902;28;20076;-59
2022/11/23 07:40:13;;;;;;;11.30;2.10;;;8.20;99.90;;;;;;5049265;28;20365;-59
2022/11/23 07:42:39;;;;;;;10.07;1.97;;;8.30;99.90;;;;;;5050889;28;20123;-59
2022/11/23 07:45:05;;;;;;;11.77;1.93;;;8.30;99.90;;;;;;5052206;28;20452;-59
2022/11/23 07:47:32;;;;;;;19.10;2.73;;;8.30;99.90;;;;;;5052126;28;20123;-60
2022/11/23 07:49:57;;;;;;;11.70;2.10;;;8.40;99.90;;;;;;5049438;28;20253;-59
2022/11/23 07:52:23;;;;;;;9.50;1.50;;;8.30;99.90;;;;;;5051496;28;20037;-58
2022/11/23 07:54:49;;;;;;;10.97;1.97;;;8.40;99.90;;;;;;5051542;28;20040;-58
2022/11/23 07:57:14;;;;;;;9.77;1.80;;;8.40;99.90;;;;;;5051215;28;20029;-57
2022/11/23 07:59:40;;;;;;;7.33;1.70;;;8.60;99.90;;;;;;5051583;28;20082;-57
2022/11/23 08:02:08;;;;;;;12.87;1.83;;;8.60;99.90;;;;;;5052348;28;20032;-56
2022/11/23 08:04:34;;;;;;;7.20;1.50;;;8.70;99.90;;;;;;5051455;28;20154;-56
2022/11/23 08:07:01;;;;;;;9.20;2.20;;;8.70;99.90;;;;;;5051033;28;20470;-54
2022/11/23 08:09:27;;;;;;;13.43;2.13;;;8.70;99.90;;;;;;5051654;28;20021;-55
2022/11/23 08:11:52;;;;;;;9.43;1.70;;;8.80;99.90;;;;;;5052074;28;20376;-56
2022/11/23 08:14:18;;;;;;;9.50;1.77;;;8.80;99.90;;;;;;5051637;28;20643;-58
2022/11/23 08:16:48;;;;;;;10.03;2.00;;;8.90;99.90;;;;;;5051255;28;20098;-58
2022/11/23 08:19:14;;;;;;;6.27;1.40;;;8.90;99.90;;;;;;5051314;28;20025;-58
2022/11/23 08:21:39;;;;;;;6.80;1.50;;;9.00;99.90;;;;;;5050970;28;20035;-57
2022/11/23 08:24:05;;;;;;;9.63;1.70;;;9.00;99.90;;;;;;5051720;28;20032;-57
2022/11/23 08:26:31;;;;;;;11.27;1.50;;;9.00;99.90;;;;;;5051399;28;20037;-57
2022/11/23 08:28:57;;;;;;;9.57;1.50;;;9.10;99.90;;;;;;5051261;28;20039;-57
2022/11/23 08:31:22;;;;;;;7.10;1.43;;;9.10;99.90;;;;;;5051587;28;20124;-58
2022/11/23 08:33:48;;;;;;;11.53;1.93;;;9.10;99.90;;;;;;5051418;28;20075;-58
2022/11/23 08:36:14;;;;;;;6.77;1.37;;;9.10;99.90;;;;;;5050543;28;20615;-57
2022/11/23 08:38:40;;;;;;;9.83;1.80;;;9.10;99.90;;;;;;5050684;28;20090;-53
2022/11/23 08:41:05;;;;;;;9.60;1.60;;;9.20;99.90;;;;;;5051098;28;20032;-57
2022/11/23 08:43:31;;;;;;;11.53;2.37;;;9.30;99.90;;;;;;5051022;28;20040;-57
2022/11/23 08:45:58;;;;;;;12.80;2.10;;;9.30;99.90;;;;;;5050947;28;20052;-58
2022/11/23 08:48:24;;;;;;;9.73;1.60;;;9.40;99.90;;;;;;5050535;28;20112;-58
2022/11/23 08:50:50;;;;;;;8.60;1.50;;;9.50;99.90;;;;;;5048675;28;20105;-58
2022/11/23 08:53:16;;;;;;;14.70;1.77;;;9.50;99.90;;;;;;5049680;28;20033;-57
2022/11/23 08:55:42;;;;;;;9.27;2.07;;;9.60;99.90;;;;;;5049836;28;20393;-58
2022/11/23 08:58:08;;;;;;;11.43;3.00;;;9.60;99.90;;;;;;5049604;28;20033;-59
2022/11/23 09:00:34;;;;;;;27.13;11.23;;;9.70;99.90;;;;;;5050383;28;20029;-49
2022/11/23 09:03:00;;;;;;;12.57;4.07;;;9.90;99.90;;;;;;5050491;28;20431;-53
2022/11/23 09:05:27;;;;;;;8.10;1.37;;;10.00;99.90;;;;;;5049305;28;20021;-58
2022/11/23 09:08:00;;;;;;;9.30;1.80;;;10.10;99.90;;;;;;5048272;28;20041;-58
2022/11/23 09:10:25;;;;;;;10.93;1.70;;;10.10;99.90;;;;;;5050253;28;20115;-57
2022/11/23 09:12:51;;;;;;;12.93;2.13;;;10.20;99.90;;;;;;5050334;28;20167;-58
2022/11/23 09:15:17;;;;;;;10.93;2.67;;;10.10;99.90;;;;;;5050233;28;20036;-61
2022/11/23 09:17:43;;;;;;;11.80;2.10;;;10.20;99.90;;;;;;5049026;28;20130;-54
2022/11/23 09:20:10;;;;;;;10.93;1.97;;;10.70;99.90;;;;;;5049505;28;20031;-51
2022/11/23 09:22:36;;;;;;;9.73;1.73;;;10.80;99.90;;;;;;5050065;28;20071;-56
2022/11/23 09:25:02;;;;;;;11.50;2.13;;;11.10;99.90;;;;;;5050048;28;20424;-53
2022/11/23 09:27:27;;;;;;;8.80;1.58;;;11.90;99.90;;;;;;5049470;28;20036;-54
2022/11/23 09:29:53;;;;;;;8.93;2.00;;;12.70;99.90;;;;;;5049535;28;20155;-53
2022/11/23 09:32:19;;;;;;;7.53;1.70;;;13.30;99.90;;;;;;5050188;28;20086;-52
2022/11/23 09:34:45;;;;;;;11.65;2.05;;;13.80;99.90;;;;;;5048839;28;20342;-56
2022/11/23 09:37:11;;;;;;;8.88;2.25;;;14.20;99.90;;;;;;5049278;28;20039;-55
2022/11/23 09:39:37;;;;;;;9.68;2.05;;;14.70;99.10;;;;;;5049228;28;20480;-55
2022/11/23 09:42:34;;;;;;;8.55;1.55;;;15.10;98.00;;;;;;5050009;28;20035;-57
2022/11/23 09:45:02;;;;;;;9.50;2.22;;;15.40;97.30;;;;;;5049386;28;20166;-57
2022/11/23 09:47:44;;;;;;;14.15;3.22;;;15.90;94.60;;;;;;5049286;28;20029;-57
2022/11/23 09:50:26;;;;;;;7.43;1.73;;;16.00;94.30;;;;;;5048399;28;20492;-57
2022/11/23 09:52:52;;;;;;;10.02;2.00;;;16.00;93.30;;;;;;5049546;28;20110;-55
2022/11/23 09:55:40;;;;;;;11.10;2.45;;;16.40;92.50;;;;;;5049472;28;20509;-57
2022/11/23 09:58:14;;;;;;;6.80;1.70;;;16.80;91.70;;;;;;5049345;28;20359;-56
2022/11/23 10:00:47;;;;;;;10.50;2.40;;;17.10;90.00;;;;;;5049079;28;20032;-57
2022/11/23 10:03:15;;;;;;;12.60;2.25;;;17.40;87.70;;;;;;5048450;28;20024;-57
2022/11/23 10:05:55;;;;;;;7.50;2.20;;;17.20;87.70;;;;;;5048948;28;20037;-56
2022/11/23 10:08:27;;;;;;;8.07;1.98;;;17.20;87.10;;;;;;5049535;28;20469;-56
2022/11/23 10:11:51;;;;;;;9.32;1.80;;;17.00;87.00;;;;;;5049335;28;20465;-56
2022/11/23 10:14:47;;;;;;;8.18;2.42;;;16.70;85.40;;;;;;5006671;28;20038;-57
2022/11/23 10:17:54;;;;;;;8.60;1.90;;;17.20;83.30;;;;;;5006798;28;20036;-57
2022/11/23 10:20:39;;;;;;;9.25;2.10;;;17.70;81.20;;;;;;5018794;28;20477;-57
2022/11/23 10:23:14;;;;;;;6.90;1.77;;;17.70;80.00;;;;;;5029265;28;20113;-57
2022/11/23 10:25:47;;;;;;;12.45;2.42;;;18.00;79.30;;;;;;5028994;28;20093;-57
2022/11/23 10:28:17;;;;;;;9.98;2.60;;;18.30;77.80;;;;;;5029232;28;20041;-57
2022/11/23 10:31:04;;;;;;;7.80;2.00;;;18.30;77.10;;;;;;5028891;28;20033;-57
2022/11/23 10:33:38;;;;;;;9.53;1.97;;;18.20;76.50;;;;;;5035571;28;20118;-57
2022/11/23 10:36:04;;;;;;;8.18;1.80;;;18.00;76.70;;;;;;5047585;28;20048;-56
2022/11/23 10:38:31;;;;;;;9.73;2.60;;;17.30;77.70;;;;;;5048130;28;20315;-57
2022/11/23 10:41:12;;;;;;;14.90;2.60;;;17.10;80.30;;;;;;5048785;28;20107;-57
2022/11/23 10:43:45;;;;;;;10.35;2.00;;;17.50;78.40;;;;;;5048928;28;20031;-58
2022/11/23 10:46:31;;;;;;;8.02;1.75;;;18.30;76.70;;;;;;5048524;28;20445;-56
2022/11/23 10:49:20;;;;;;;9.55;2.00;;;17.80;76.50;;;;;;5048257;28;20048;-55
2022/11/23 10:52:04;;;;;;;7.97;1.77;;;17.20;78.20;;;;;;5039648;28;20211;-55
2022/11/23 10:54:37;;;;;;;8.35;1.80;;;16.30;80.90;;;;;;5048731;28;20039;-56
2022/11/23 10:57:41;;;;;;;6.22;1.58;;;16.50;80.40;;;;;;5048220;28;20032;-53
2022/11/23 11:00:09;;;;;;;7.78;1.70;;;16.90;80.20;;;;;;5048415;28;20025;-56
2022/11/23 11:02:44;;;;;;;11.77;1.83;;;17.20;77.90;;;;;;5048588;28;20671;-59
2022/11/23 11:05:34;;;;;;;8.52;2.33;;;17.30;77.20;;;;;;5047670;28;20025;-58
2022/11/23 11:08:07;;;;;;;8.05;1.70;;;17.00;78.10;;;;;;5047990;28;20032;-57
2022/11/23 11:10:38;;;;;;;9.35;1.95;;;17.20;79.40;;;;;;5048240;28;20094;-57
2022/11/23 11:13:21;;;;;;;6.25;1.60;;;17.40;79.00;;;;;;5048826;28;20028;-56
2022/11/23 11:15:59;;;;;;;10.50;2.42;;;17.40;77.40;;;;;;5047678;28;20571;-57
2022/11/23 11:18:27;;;;;;;10.48;2.28;;;17.00;77.30;;;;;;5047867;28;20136;-57
2022/11/23 11:20:59;;;;;;;10.18;1.70;;;16.60;79.40;;;;;;5046491;28;20397;-57
2022/11/23 11:23:27;;;;;;;9.77;2.15;;;16.20;80.20;;;;;;5048037;28;20036;-57
2022/11/23 11:26:04;;;;;;;6.97;1.60;;;15.60;82.10;;;;;;5048037;28;20020;-56
2022/11/23 11:28:40;;;;;;;9.23;2.40;;;14.80;86.10;;;;;;5048026;28;20458;-57
2022/11/23 11:31:15;;;;;;;10.63;2.25;;;14.00;90.00;;;;;;5048158;28;20029;-55
2022/11/23 11:34:07;;;;;;;9.60;1.85;;;13.20;92.20;;;;;;5047968;28;20109;-57
2022/11/23 11:36:46;;;;;;;10.95;2.50;;;12.90;93.00;;;;;;5046749;28;20489;-56
2022/11/23 11:39:19;;;;;;;13.25;2.33;;;13.00;93.90;;;;;;5047584;28;20439;-57
2022/11/23 11:41:47;;;;;;;9.05;2.65;;;13.70;92.80;;;;;;5046894;28;20020;-57
2022/11/23 11:44:23;;;;;;;5.63;1.60;;;14.30;91.50;;;;;;5048040;28;20033;-57
2022/11/23 11:46:55;;;;;;;11.13;2.25;;;14.80;90.90;;;;;;5030495;22;20053;-52
2022/11/23 11:49:30;;;;;;;4.35;1.33;;;15.00;90.40;;;;;;5007397;28;20033;-53
2022/11/23 11:52:11;;;;;;;9.65;2.03;;;14.30;90.80;;;;;;5013338;28;20034;-55
2022/11/23 11:54:57;;;;;;;8.05;1.70;;;13.60;92.10;;;;;;5017406;28;20036;-56
2022/11/23 11:57:53;;;;;;;9.00;1.42;;;13.30;93.60;;;;;;4998736;28;20034;-54
2022/11/23 12:00:20;;;;;;;7.47;1.30;;;12.60;94.40;;;;;;4968261;28;20043;-54
2022/11/23 12:03:00;;;;;;;8.98;1.45;;;12.00;95.70;;;;;;4969537;28;20113;-55
2022/11/23 12:05:49;;;;;;;12.98;1.98;;;11.60;97.50;;;;;;4968917;28;20031;-50
2022/11/23 12:08:20;;;;;;;12.88;2.33;;;11.40;98.30;;;;;;4969305;28;20037;-54
2022/11/23 12:11:00;;;;;;;6.60;1.70;;;11.40;98.70;;;;;;4969590;28;20042;-52
2022/11/23 12:13:31;;;;;;;7.80;1.30;;;11.50;98.30;;;;;;4969844;28;20114;-51
2022/11/23 12:15:59;;;;;;;6.97;1.83;;;11.30;98.30;;;;;;4936540;28;20035;-55
2022/11/23 12:18:42;;;;;;;6.43;1.30;;;11.30;98.90;;;;;;4968970;28;20030;-52
2022/11/23 12:21:45;;;;;;;10.20;2.00;;;11.30;98.80;;;;;;4968666;28;20053;-53
2022/11/23 12:24:29;;;;;;;10.37;1.70;;;11.30;99.30;;;;;;4969554;28;20022;-54
2022/11/23 12:27:17;;;;;;;7.93;1.40;;;11.20;99.60;;;;;;4971123;28;20034;-56
2022/11/23 12:30:16;;;;;;;6.67;1.50;;;11.10;99.90;;;;;;4972677;28;20042;-52
2022/11/23 12:32:41;;;;;;;;;;;11.00;99.90;;;;;;4973560;28;20125;-56
2022/11/23 12:35:42;;;;;;;7.67;1.30;;;10.90;99.90;;;;;;4972176;28;19993;-55
2022/11/23 12:38:23;;;;;;;11.90;2.37;;;10.90;99.90;;;;;;4972442;28;20035;-54
2022/11/23 12:40:57;;;;;;;12.43;5.50;;;11.00;99.90;;;;;;4972760;28;20121;-55
2022/11/23 12:43:31;;;;;;;14.57;6.03;;;11.10;99.90;;;;;;4972806;28;20023;-56
2022/11/23 12:46:23;;;;;;;11.67;3.43;;;11.30;99.90;;;;;;4971054;28;20153;-55
2022/11/23 12:49:10;;;;;;;7.43;2.07;;;11.60;99.90;;;;;;4971913;28;20042;-53
2022/11/23 12:51:56;;;;;;;7.07;1.25;;;12.40;98.40;;;;;;4971624;28;20450;-53
2022/11/23 12:54:31;;;;;;;7.63;1.42;;;12.40;98.10;;;;;;4972262;28;20030;-52
2022/11/23 12:56:56;;;;;;;8.50;1.33;;;12.50;97.90;;;;;;4972168;28;20038;-53
2022/11/23 12:59:25;;;;;;;4.05;1.25;;;12.70;97.60;;;;;;4972241;28;20123;-55
2022/11/23 13:02:02;;;;;;;7.22;1.50;;;12.90;96.60;;;;;;4972228;28;20407;-54
2022/11/23 13:04:31;;;;;;;8.07;1.30;;;13.30;95.80;;;;;;4971679;28;20043;-55
2022/11/23 13:07:47;;;;;;;7.80;1.52;;;13.50;95.20;;;;;;4971377;28;20049;-50
2022/11/23 13:10:51;;;;;;;6.22;1.50;;;14.60;92.60;;;;;;4949881;29;20059;-55